sensor_id;sensor_type;location;lat;lon;timestamp;P1;durP1;ratioP1;P2;durP2;ratioP2
66139;SDS011;52945;51.908;8.364;2023-04-25T00:01:54;8.27;;;2.38;;
66139;SDS011;52945;51.908;8.364;2023-04-25T00:04:56;11.25;;;2.88;;
66139;SDS011;52945;51.908;8.364;2023-04-25T00:10:58;12.13;;;2.42;;
66139;SDS011;52945;51.908;8.364;2023-04-25T00:14:00;8.75;;;2.40;;
66139;SDS011;52945;51.908;8.364;2023-04-25T00:17:02;5.72;;;2.40;;
66139;SDS011;52945;51.908;8.364;2023-04-25T00:20:04;4.63;;;2.10;;
66139;SDS011;52945;51.908;8.364;2023-04-25T00:23:06;8.45;;;2.30;;
66139;SDS011;52945;51.908;8.364;2023-04-25T00:26:07;9.10;;;2.38;;
66139;SDS011;52945;51.908;8.364;2023-04-25T00:29:08;6.75;;;2.40;;
66139;SDS011;52945;51.908;8.364;2023-04-25T00:32:08;8.07;;;2.40;;
66139;SDS011;52945;51.908;8.364;2023-04-25T00:35:09;6.60;;;2.53;;
66139;SDS011;52945;51.908;8.364;2023-04-25T00:38:10;9.55;;;2.33;;
66139;SDS011;52945;51.908;8.364;2023-04-25T00:41:11;5.20;;;1.92;;
66139;SDS011;52945;51.908;8.364;2023-04-25T00:44:12;6.65;;;2.28;;
66139;SDS011;52945;51.908;8.364;2023-04-25T00:47:13;7.55;;;2.33;;
66139;SDS011;52945;51.908;8.364;2023-04-25T00:50:14;7.50;;;2.10;;
66139;SDS011;52945;51.908;8.364;2023-04-25T00:53:15;7.32;;;2.70;;
66139;SDS011;52945;51.908;8.364;2023-04-25T00:56:16;8.85;;;2.42;;
66139;SDS011;52945;51.908;8.364;2023-04-25T00:59:17;11.02;;;2.63;;
66139;SDS011;52945;51.908;8.364;2023-04-25T01:02:19;5.65;;;2.35;;
66139;SDS011;52945;51.908;8.364;2023-04-25T01:05:21;10.90;;;2.63;;
66139;SDS011;52945;51.908;8.364;2023-04-25T01:08:23;7.10;;;2.65;;
66139;SDS011;52945;51.908;8.364;2023-04-25T01:11:27;11.43;;;2.70;;
66139;SDS011;52945;51.908;8.364;2023-04-25T01:14:28;8.57;;;2.95;;
66139;SDS011;52945;51.908;8.364;2023-04-25T01:17:29;5.68;;;2.17;;
66139;SDS011;52945;51.908;8.364;2023-04-25T01:23:32;10.23;;;1.92;;
66139;SDS011;52945;51.908;8.364;2023-04-25T01:26:33;8.63;;;2.90;;
66139;SDS011;52945;51.908;8.364;2023-04-25T01:29:35;6.20;;;2.53;;
66139;SDS011;52945;51.908;8.364;2023-04-25T01:32:36;8.95;;;2.63;;
66139;SDS011;52945;51.908;8.364;2023-04-25T01:35:39;10.02;;;2.38;;
66139;SDS011;52945;51.908;8.364;2023-04-25T01:38:40;6.68;;;2.03;;
66139;SDS011;52945;51.908;8.364;2023-04-25T01:41:42;8.10;;;2.60;;
66139;SDS011;52945;51.908;8.364;2023-04-25T01:47:43;12.10;;;2.70;;
66139;SDS011;52945;51.908;8.364;2023-04-25T01:50:48;4.68;;;2.30;;
66139;SDS011;52945;51.908;8.364;2023-04-25T01:53:49;9.35;;;2.40;;
66139;SDS011;52945;51.908;8.364;2023-04-25T01:56:50;8.45;;;2.55;;
66139;SDS011;52945;51.908;8.364;2023-04-25T01:59:51;6.95;;;2.72;;
66139;SDS011;52945;51.908;8.364;2023-04-25T02:02:58;7.13;;;2.63;;
66139;SDS011;52945;51.908;8.364;2023-04-25T02:05:58;7.45;;;2.72;;
66139;SDS011;52945;51.908;8.364;2023-04-25T02:08:59;6.35;;;2.40;;
66139;SDS011;52945;51.908;8.364;2023-04-25T02:11:59;5.18;;;2.22;;
66139;SDS011;52945;51.908;8.364;2023-04-25T02:15:00;7.10;;;2.17;;
66139;SDS011;52945;51.908;8.364;2023-04-25T02:18:01;9.27;;;2.78;;
66139;SDS011;52945;51.908;8.364;2023-04-25T02:21:01;5.57;;;2.65;;
66139;SDS011;52945;51.908;8.364;2023-04-25T02:24:03;9.40;;;2.75;;
66139;SDS011;52945;51.908;8.364;2023-04-25T02:30:05;13.43;;;2.95;;
66139;SDS011;52945;51.908;8.364;2023-04-25T02:33:06;10.35;;;2.40;;
66139;SDS011;52945;51.908;8.364;2023-04-25T02:36:07;8.90;;;3.05;;
66139;SDS011;52945;51.908;8.364;2023-04-25T02:39:07;5.50;;;2.42;;
66139;SDS011;52945;51.908;8.364;2023-04-25T02:42:08;5.72;;;2.83;;
66139;SDS011;52945;51.908;8.364;2023-04-25T02:45:09;6.50;;;2.95;;
66139;SDS011;52945;51.908;8.364;2023-04-25T02:48:09;6.28;;;2.97;;
66139;SDS011;52945;51.908;8.364;2023-04-25T02:51:10;9.48;;;3.00;;
66139;SDS011;52945;51.908;8.364;2023-04-25T02:54:11;6.90;;;2.67;;
66139;SDS011;52945;51.908;8.364;2023-04-25T02:57:11;4.53;;;2.30;;
66139;SDS011;52945;51.908;8.364;2023-04-25T03:00:12;5.53;;;2.33;;
66139;SDS011;52945;51.908;8.364;2023-04-25T03:03:14;4.88;;;2.45;;
66139;SDS011;52945;51.908;8.364;2023-04-25T03:06:17;8.18;;;2.90;;
66139;SDS011;52945;51.908;8.364;2023-04-25T03:09:18;5.35;;;2.42;;
66139;SDS011;52945;51.908;8.364;2023-04-25T03:12:19;8.60;;;2.95;;
66139;SDS011;52945;51.908;8.364;2023-04-25T03:15:19;5.85;;;2.42;;
66139;SDS011;52945;51.908;8.364;2023-04-25T03:18:20;7.25;;;2.83;;
66139;SDS011;52945;51.908;8.364;2023-04-25T03:21:21;6.57;;;2.25;;
66139;SDS011;52945;51.908;8.364;2023-04-25T03:24:21;5.35;;;1.92;;
66139;SDS011;52945;51.908;8.364;2023-04-25T03:27:22;4.97;;;2.30;;
66139;SDS011;52945;51.908;8.364;2023-04-25T03:30:22;7.30;;;2.65;;
66139;SDS011;52945;51.908;8.364;2023-04-25T03:33:23;7.00;;;2.20;;
66139;SDS011;52945;51.908;8.364;2023-04-25T03:36:24;7.03;;;2.10;;
66139;SDS011;52945;51.908;8.364;2023-04-25T03:39:24;5.57;;;2.33;;
66139;SDS011;52945;51.908;8.364;2023-04-25T03:42:25;4.88;;;1.88;;
66139;SDS011;52945;51.908;8.364;2023-04-25T03:45:26;9.75;;;2.50;;
66139;SDS011;52945;51.908;8.364;2023-04-25T03:48:26;8.32;;;2.50;;
66139;SDS011;52945;51.908;8.364;2023-04-25T03:51:27;6.18;;;2.03;;
66139;SDS011;52945;51.908;8.364;2023-04-25T03:54:28;7.05;;;2.22;;
66139;SDS011;52945;51.908;8.364;2023-04-25T03:57:28;8.20;;;2.20;;
66139;SDS011;52945;51.908;8.364;2023-04-25T04:00:29;5.82;;;1.90;;
66139;SDS011;52945;51.908;8.364;2023-04-25T04:03:30;9.80;;;2.85;;
66139;SDS011;52945;51.908;8.364;2023-04-25T04:06:31;8.13;;;1.92;;
66139;SDS011;52945;51.908;8.364;2023-04-25T04:09:33;9.48;;;2.20;;
66139;SDS011;52945;51.908;8.364;2023-04-25T04:12:33;6.53;;;1.98;;
66139;SDS011;52945;51.908;8.364;2023-04-25T04:15:34;5.97;;;1.98;;
66139;SDS011;52945;51.908;8.364;2023-04-25T04:18:35;7.90;;;2.22;;
66139;SDS011;52945;51.908;8.364;2023-04-25T04:21:35;5.80;;;2.10;;
66139;SDS011;52945;51.908;8.364;2023-04-25T04:24:36;5.95;;;1.80;;
66139;SDS011;52945;51.908;8.364;2023-04-25T04:27:37;6.93;;;1.95;;
66139;SDS011;52945;51.908;8.364;2023-04-25T04:30:38;6.13;;;2.30;;
66139;SDS011;52945;51.908;8.364;2023-04-25T04:33:39;11.35;;;2.42;;
66139;SDS011;52945;51.908;8.364;2023-04-25T04:36:39;5.82;;;1.58;;
66139;SDS011;52945;51.908;8.364;2023-04-25T04:42:42;8.48;;;2.20;;
66139;SDS011;52945;51.908;8.364;2023-04-25T04:45:43;5.85;;;2.05;;
66139;SDS011;52945;51.908;8.364;2023-04-25T04:48:44;7.20;;;2.00;;
66139;SDS011;52945;51.908;8.364;2023-04-25T04:51:45;7.80;;;2.53;;
66139;SDS011;52945;51.908;8.364;2023-04-25T04:54:46;8.02;;;2.53;;
66139;SDS011;52945;51.908;8.364;2023-04-25T04:57:47;6.63;;;1.73;;
66139;SDS011;52945;51.908;8.364;2023-04-25T05:00:48;8.57;;;2.13;;
66139;SDS011;52945;51.908;8.364;2023-04-25T05:03:49;4.85;;;1.70;;
66139;SDS011;52945;51.908;8.364;2023-04-25T05:06:50;7.93;;;1.95;;
66139;SDS011;52945;51.908;8.364;2023-04-25T05:09:51;8.50;;;2.00;;
66139;SDS011;52945;51.908;8.364;2023-04-25T05:12:52;11.57;;;2.17;;
66139;SDS011;52945;51.908;8.364;2023-04-25T05:15:52;7.50;;;1.95;;
66139;SDS011;52945;51.908;8.364;2023-04-25T05:18:53;4.72;;;1.67;;
66139;SDS011;52945;51.908;8.364;2023-04-25T05:21:54;7.60;;;2.00;;
66139;SDS011;52945;51.908;8.364;2023-04-25T05:24:54;6.75;;;2.10;;
66139;SDS011;52945;51.908;8.364;2023-04-25T05:27:55;8.85;;;2.17;;
66139;SDS011;52945;51.908;8.364;2023-04-25T05:30:56;8.38;;;1.70;;
66139;SDS011;52945;51.908;8.364;2023-04-25T05:33:57;6.35;;;2.03;;
66139;SDS011;52945;51.908;8.364;2023-04-25T05:36:58;10.10;;;1.98;;
66139;SDS011;52945;51.908;8.364;2023-04-25T05:39:59;4.57;;;1.88;;
66139;SDS011;52945;51.908;8.364;2023-04-25T05:42:59;9.45;;;2.17;;
66139;SDS011;52945;51.908;8.364;2023-04-25T05:46:00;10.57;;;2.30;;
66139;SDS011;52945;51.908;8.364;2023-04-25T05:49:01;7.03;;;1.50;;
66139;SDS011;52945;51.908;8.364;2023-04-25T05:52:02;6.65;;;2.17;;
66139;SDS011;52945;51.908;8.364;2023-04-25T05:55:03;4.78;;;2.05;;
66139;SDS011;52945;51.908;8.364;2023-04-25T05:58:04;7.70;;;2.10;;
66139;SDS011;52945;51.908;8.364;2023-04-25T06:01:06;6.47;;;1.98;;
66139;SDS011;52945;51.908;8.364;2023-04-25T06:04:07;6.40;;;1.80;;
66139;SDS011;52945;51.908;8.364;2023-04-25T06:07:07;13.30;;;2.17;;
66139;SDS011;52945;51.908;8.364;2023-04-25T06:10:09;4.90;;;1.85;;
66139;SDS011;52945;51.908;8.364;2023-04-25T06:13:10;7.60;;;1.70;;
66139;SDS011;52945;51.908;8.364;2023-04-25T06:16:10;5.85;;;1.75;;
66139;SDS011;52945;51.908;8.364;2023-04-25T06:19:11;4.68;;;1.52;;
66139;SDS011;52945;51.908;8.364;2023-04-25T06:22:11;6.78;;;1.85;;
66139;SDS011;52945;51.908;8.364;2023-04-25T06:25:12;8.57;;;1.60;;
66139;SDS011;52945;51.908;8.364;2023-04-25T06:28:13;4.28;;;1.83;;
66139;SDS011;52945;51.908;8.364;2023-04-25T06:31:13;6.00;;;2.47;;
66139;SDS011;52945;51.908;8.364;2023-04-25T06:34:14;8.27;;;2.22;;
66139;SDS011;52945;51.908;8.364;2023-04-25T06:37:15;10.57;;;2.28;;
66139;SDS011;52945;51.908;8.364;2023-04-25T06:40:16;5.70;;;1.67;;
66139;SDS011;52945;51.908;8.364;2023-04-25T06:43:17;5.75;;;1.52;;
66139;SDS011;52945;51.908;8.364;2023-04-25T06:46:18;4.43;;;1.50;;
66139;SDS011;52945;51.908;8.364;2023-04-25T06:49:18;5.22;;;1.40;;
66139;SDS011;52945;51.908;8.364;2023-04-25T06:52:19;9.52;;;1.70;;
66139;SDS011;52945;51.908;8.364;2023-04-25T06:55:20;6.82;;;2.13;;
66139;SDS011;52945;51.908;8.364;2023-04-25T06:58:20;8.25;;;1.60;;
66139;SDS011;52945;51.908;8.364;2023-04-25T07:01:21;8.35;;;1.60;;
66139;SDS011;52945;51.908;8.364;2023-04-25T07:04:21;11.52;;;2.17;;
66139;SDS011;52945;51.908;8.364;2023-04-25T07:07:22;7.30;;;1.50;;
66139;SDS011;52945;51.908;8.364;2023-04-25T07:10:22;9.57;;;1.88;;
66139;SDS011;52945;51.908;8.364;2023-04-25T07:13:23;6.95;;;1.73;;
66139;SDS011;52945;51.908;8.364;2023-04-25T07:16:24;1.95;;;1.02;;
66139;SDS011;52945;51.908;8.364;2023-04-25T07:19:24;6.90;;;1.50;;
66139;SDS011;52945;51.908;8.364;2023-04-25T07:22:26;5.10;;;1.58;;
66139;SDS011;52945;51.908;8.364;2023-04-25T07:25:27;3.20;;;0.98;;
66139;SDS011;52945;51.908;8.364;2023-04-25T07:28:27;8.20;;;1.70;;
66139;SDS011;52945;51.908;8.364;2023-04-25T07:31:28;7.28;;;1.45;;
66139;SDS011;52945;51.908;8.364;2023-04-25T07:34:29;10.43;;;1.40;;
66139;SDS011;52945;51.908;8.364;2023-04-25T07:37:30;7.65;;;1.58;;
66139;SDS011;52945;51.908;8.364;2023-04-25T07:40:30;6.85;;;1.67;;
66139;SDS011;52945;51.908;8.364;2023-04-25T07:43:31;10.15;;;1.98;;
66139;SDS011;52945;51.908;8.364;2023-04-25T07:46:32;7.65;;;1.48;;
66139;SDS011;52945;51.908;8.364;2023-04-25T07:49:35;7.40;;;1.50;;
66139;SDS011;52945;51.908;8.364;2023-04-25T07:52:36;5.78;;;1.15;;
66139;SDS011;52945;51.908;8.364;2023-04-25T07:55:37;5.28;;;1.60;;
66139;SDS011;52945;51.908;8.364;2023-04-25T07:58:40;4.05;;;1.23;;
66139;SDS011;52945;51.908;8.364;2023-04-25T08:01:40;7.65;;;1.42;;
66139;SDS011;52945;51.908;8.364;2023-04-25T08:04:41;4.47;;;1.17;;
66139;SDS011;52945;51.908;8.364;2023-04-25T08:07:41;6.00;;;1.17;;
66139;SDS011;52945;51.908;8.364;2023-04-25T08:10:43;7.13;;;1.40;;
66139;SDS011;52945;51.908;8.364;2023-04-25T08:13:44;6.65;;;1.50;;
66139;SDS011;52945;51.908;8.364;2023-04-25T08:16:44;6.35;;;1.90;;
66139;SDS011;52945;51.908;8.364;2023-04-25T08:19:45;5.32;;;1.10;;
66139;SDS011;52945;51.908;8.364;2023-04-25T08:22:46;3.78;;;1.38;;
66139;SDS011;52945;51.908;8.364;2023-04-25T08:25:48;3.75;;;1.40;;
66139;SDS011;52945;51.908;8.364;2023-04-25T08:28:49;3.72;;;1.08;;
66139;SDS011;52945;51.908;8.364;2023-04-25T08:31:49;4.18;;;0.82;;
66139;SDS011;52945;51.908;8.364;2023-04-25T08:34:50;5.05;;;1.05;;
66139;SDS011;52945;51.908;8.364;2023-04-25T08:37:54;5.88;;;1.35;;
66139;SDS011;52945;51.908;8.364;2023-04-25T08:40:54;4.10;;;1.00;;
66139;SDS011;52945;51.908;8.364;2023-04-25T08:43:59;5.65;;;1.40;;
66139;SDS011;52945;51.908;8.364;2023-04-25T08:50:03;3.25;;;0.95;;
66139;SDS011;52945;51.908;8.364;2023-04-25T08:53:05;5.28;;;1.10;;
66139;SDS011;52945;51.908;8.364;2023-04-25T08:56:09;4.70;;;1.10;;
66139;SDS011;52945;51.908;8.364;2023-04-25T08:59:13;9.40;;;1.58;;
66139;SDS011;52945;51.908;8.364;2023-04-25T09:02:13;4.05;;;1.15;;
66139;SDS011;52945;51.908;8.364;2023-04-25T09:05:16;3.90;;;0.98;;
66139;SDS011;52945;51.908;8.364;2023-04-25T09:08:17;3.08;;;1.00;;
66139;SDS011;52945;51.908;8.364;2023-04-25T09:11:18;5.20;;;1.00;;
66139;SDS011;52945;51.908;8.364;2023-04-25T09:14:20;4.25;;;1.42;;
66139;SDS011;52945;51.908;8.364;2023-04-25T09:17:21;8.00;;;1.10;;
66139;SDS011;52945;51.908;8.364;2023-04-25T09:20:22;5.00;;;1.15;;
66139;SDS011;52945;51.908;8.364;2023-04-25T09:23:23;3.15;;;0.90;;
66139;SDS011;52945;51.908;8.364;2023-04-25T09:26:24;6.07;;;1.08;;
66139;SDS011;52945;51.908;8.364;2023-04-25T09:29:29;1.02;;;0.82;;
66139;SDS011;52945;51.908;8.364;2023-04-25T09:32:31;3.10;;;1.05;;
66139;SDS011;52945;51.908;8.364;2023-04-25T09:35:35;2.03;;;0.93;;
66139;SDS011;52945;51.908;8.364;2023-04-25T09:38:41;1.00;;;0.63;;
66139;SDS011;52945;51.908;8.364;2023-04-25T09:41:42;2.47;;;1.02;;
66139;SDS011;52945;51.908;8.364;2023-04-25T09:44:44;2.90;;;0.98;;
66139;SDS011;52945;51.908;8.364;2023-04-25T09:47:45;2.88;;;1.17;;
66139;SDS011;52945;51.908;8.364;2023-04-25T09:54:15;0.95;;;0.70;;
66139;SDS011;52945;51.908;8.364;2023-04-25T10:00:20;2.92;;;0.73;;
66139;SDS011;52945;51.908;8.364;2023-04-25T10:03:21;3.88;;;1.08;;
66139;SDS011;52945;51.908;8.364;2023-04-25T10:06:25;1.95;;;0.80;;
66139;SDS011;52945;51.908;8.364;2023-04-25T10:09:27;1.80;;;0.70;;
66139;SDS011;52945;51.908;8.364;2023-04-25T10:12:32;2.88;;;0.57;;
66139;SDS011;52945;51.908;8.364;2023-04-25T10:18:35;4.13;;;0.93;;
66139;SDS011;52945;51.908;8.364;2023-04-25T10:21:43;2.45;;;0.93;;
66139;SDS011;52945;51.908;8.364;2023-04-25T10:24:51;4.38;;;1.05;;
66139;SDS011;52945;51.908;8.364;2023-04-25T10:27:53;2.47;;;0.57;;
66139;SDS011;52945;51.908;8.364;2023-04-25T10:34:01;2.90;;;0.93;;
66139;SDS011;52945;51.908;8.364;2023-04-25T10:37:02;3.60;;;0.80;;
66139;SDS011;52945;51.908;8.364;2023-04-25T10:40:09;3.35;;;1.20;;
66139;SDS011;52945;51.908;8.364;2023-04-25T10:46:34;2.90;;;1.00;;
66139;SDS011;52945;51.908;8.364;2023-04-25T10:49:36;3.97;;;1.00;;
66139;SDS011;52945;51.908;8.364;2023-04-25T10:52:41;2.78;;;0.80;;
66139;SDS011;52945;51.908;8.364;2023-04-25T10:55:50;2.60;;;1.08;;
66139;SDS011;52945;51.908;8.364;2023-04-25T10:58:51;2.83;;;0.80;;
66139;SDS011;52945;51.908;8.364;2023-04-25T11:02:09;7.63;;;1.25;;
66139;SDS011;52945;51.908;8.364;2023-04-25T11:05:20;3.38;;;0.85;;
66139;SDS011;52945;51.908;8.364;2023-04-25T11:08:44;6.22;;;0.80;;
66139;SDS011;52945;51.908;8.364;2023-04-25T11:11:55;1.95;;;0.88;;
66139;SDS011;52945;51.908;8.364;2023-04-25T11:15:03;3.20;;;0.90;;
66139;SDS011;52945;51.908;8.364;2023-04-25T11:18:05;3.13;;;0.93;;
66139;SDS011;52945;51.908;8.364;2023-04-25T11:21:06;4.47;;;0.90;;
66139;SDS011;52945;51.908;8.364;2023-04-25T11:24:07;2.60;;;1.00;;
66139;SDS011;52945;51.908;8.364;2023-04-25T11:27:07;1.13;;;0.65;;
66139;SDS011;52945;51.908;8.364;2023-04-25T11:30:12;2.88;;;1.00;;
66139;SDS011;52945;51.908;8.364;2023-04-25T11:33:15;3.20;;;0.88;;
66139;SDS011;52945;51.908;8.364;2023-04-25T11:36:16;2.72;;;1.00;;
66139;SDS011;52945;51.908;8.364;2023-04-25T11:39:17;2.22;;;0.73;;
66139;SDS011;52945;51.908;8.364;2023-04-25T11:42:18;4.13;;;0.90;;
66139;SDS011;52945;51.908;8.364;2023-04-25T11:45:20;1.92;;;0.90;;
66139;SDS011;52945;51.908;8.364;2023-04-25T11:48:20;2.60;;;0.93;;
66139;SDS011;52945;51.908;8.364;2023-04-25T11:51:21;3.63;;;1.05;;
66139;SDS011;52945;51.908;8.364;2023-04-25T11:54:22;2.83;;;0.77;;
66139;SDS011;52945;51.908;8.364;2023-04-25T11:57:23;2.17;;;0.90;;
66139;SDS011;52945;51.908;8.364;2023-04-25T12:00:24;3.45;;;0.65;;
66139;SDS011;52945;51.908;8.364;2023-04-25T12:03:25;1.98;;;0.90;;
66139;SDS011;52945;51.908;8.364;2023-04-25T12:06:31;1.75;;;0.82;;
66139;SDS011;52945;51.908;8.364;2023-04-25T12:09:32;2.30;;;0.90;;
66139;SDS011;52945;51.908;8.364;2023-04-25T12:12:33;5.05;;;0.90;;
66139;SDS011;52945;51.908;8.364;2023-04-25T12:15:34;1.33;;;0.70;;
66139;SDS011;52945;51.908;8.364;2023-04-25T12:18:35;5.35;;;0.70;;
66139;SDS011;52945;51.908;8.364;2023-04-25T12:21:36;1.48;;;0.70;;
66139;SDS011;52945;51.908;8.364;2023-04-25T12:24:36;2.30;;;0.80;;
66139;SDS011;52945;51.908;8.364;2023-04-25T12:27:37;4.07;;;0.82;;
66139;SDS011;52945;51.908;8.364;2023-04-25T12:30:53;3.97;;;0.70;;
66139;SDS011;52945;51.908;8.364;2023-04-25T12:33:54;2.58;;;0.68;;
66139;SDS011;52945;51.908;8.364;2023-04-25T12:36:57;0.45;;;0.45;;
66139;SDS011;52945;51.908;8.364;2023-04-25T12:39:57;3.17;;;0.60;;
66139;SDS011;52945;51.908;8.364;2023-04-25T12:42:58;1.55;;;0.60;;
66139;SDS011;52945;51.908;8.364;2023-04-25T12:45:58;4.97;;;0.70;;
66139;SDS011;52945;51.908;8.364;2023-04-25T12:48:59;4.35;;;1.10;;
66139;SDS011;52945;51.908;8.364;2023-04-25T12:52:00;1.77;;;0.65;;
66139;SDS011;52945;51.908;8.364;2023-04-25T12:55:00;0.88;;;0.60;;
66139;SDS011;52945;51.908;8.364;2023-04-25T12:58:01;1.33;;;0.68;;
66139;SDS011;52945;51.908;8.364;2023-04-25T13:01:03;1.92;;;0.70;;
66139;SDS011;52945;51.908;8.364;2023-04-25T13:04:03;1.92;;;0.73;;
66139;SDS011;52945;51.908;8.364;2023-04-25T13:07:04;2.22;;;0.65;;
66139;SDS011;52945;51.908;8.364;2023-04-25T13:10:05;4.32;;;1.05;;
66139;SDS011;52945;51.908;8.364;2023-04-25T13:13:07;3.85;;;0.77;;
66139;SDS011;52945;51.908;8.364;2023-04-25T13:16:08;2.05;;;0.75;;
66139;SDS011;52945;51.908;8.364;2023-04-25T13:19:09;1.70;;;0.70;;
66139;SDS011;52945;51.908;8.364;2023-04-25T13:22:11;1.38;;;0.80;;
66139;SDS011;52945;51.908;8.364;2023-04-25T13:25:12;2.00;;;0.60;;
66139;SDS011;52945;51.908;8.364;2023-04-25T13:28:13;1.75;;;0.50;;
66139;SDS011;52945;51.908;8.364;2023-04-25T13:31:14;3.15;;;0.60;;
66139;SDS011;52945;51.908;8.364;2023-04-25T13:34:15;1.65;;;0.73;;
66139;SDS011;52945;51.908;8.364;2023-04-25T13:37:15;1.63;;;0.57;;
66139;SDS011;52945;51.908;8.364;2023-04-25T13:40:16;1.38;;;0.60;;
66139;SDS011;52945;51.908;8.364;2023-04-25T13:43:17;3.58;;;0.73;;
66139;SDS011;52945;51.908;8.364;2023-04-25T13:46:18;0.52;;;0.52;;
66139;SDS011;52945;51.908;8.364;2023-04-25T13:49:18;1.98;;;0.90;;
66139;SDS011;52945;51.908;8.364;2023-04-25T13:52:19;2.90;;;0.65;;
66139;SDS011;52945;51.908;8.364;2023-04-25T13:55:20;2.45;;;0.80;;
66139;SDS011;52945;51.908;8.364;2023-04-25T13:58:21;1.30;;;0.70;;
66139;SDS011;52945;51.908;8.364;2023-04-25T14:04:22;1.75;;;0.73;;
66139;SDS011;52945;51.908;8.364;2023-04-25T14:07:23;1.48;;;0.60;;
66139;SDS011;52945;51.908;8.364;2023-04-25T14:13:25;1.17;;;0.50;;
66139;SDS011;52945;51.908;8.364;2023-04-25T14:16:25;0.73;;;0.60;;
66139;SDS011;52945;51.908;8.364;2023-04-25T14:19:26;4.07;;;1.08;;
66139;SDS011;52945;51.908;8.364;2023-04-25T14:22:28;1.67;;;0.63;;
66139;SDS011;52945;51.908;8.364;2023-04-25T14:25:29;1.63;;;0.73;;
66139;SDS011;52945;51.908;8.364;2023-04-25T14:28:30;3.13;;;1.05;;
66139;SDS011;52945;51.908;8.364;2023-04-25T14:31:31;2.05;;;1.00;;
66139;SDS011;52945;51.908;8.364;2023-04-25T14:34:32;1.75;;;0.98;;
66139;SDS011;52945;51.908;8.364;2023-04-25T14:37:33;1.33;;;1.00;;
66139;SDS011;52945;51.908;8.364;2023-04-25T14:40:33;3.08;;;0.90;;
66139;SDS011;52945;51.908;8.364;2023-04-25T14:43:34;4.68;;;1.10;;
66139;SDS011;52945;51.908;8.364;2023-04-25T14:46:36;1.50;;;0.85;;
66139;SDS011;52945;51.908;8.364;2023-04-25T14:49:36;4.13;;;0.90;;
66139;SDS011;52945;51.908;8.364;2023-04-25T14:52:37;2.45;;;1.02;;
66139;SDS011;52945;51.908;8.364;2023-04-25T14:55:38;3.72;;;1.15;;
66139;SDS011;52945;51.908;8.364;2023-04-25T14:58:39;2.70;;;0.80;;
66139;SDS011;52945;51.908;8.364;2023-04-25T15:01:40;2.47;;;1.23;;
66139;SDS011;52945;51.908;8.364;2023-04-25T15:04:41;2.10;;;0.77;;
66139;SDS011;52945;51.908;8.364;2023-04-25T15:07:42;3.03;;;0.82;;
66139;SDS011;52945;51.908;8.364;2023-04-25T15:10:43;2.05;;;0.95;;
66139;SDS011;52945;51.908;8.364;2023-04-25T15:13:44;4.07;;;1.00;;
66139;SDS011;52945;51.908;8.364;2023-04-25T15:16:45;1.70;;;0.88;;
66139;SDS011;52945;51.908;8.364;2023-04-25T15:19:46;1.88;;;0.90;;
66139;SDS011;52945;51.908;8.364;2023-04-25T15:22:46;1.63;;;0.95;;
66139;SDS011;52945;51.908;8.364;2023-04-25T15:25:49;3.03;;;1.00;;
66139;SDS011;52945;51.908;8.364;2023-04-25T15:28:51;1.63;;;0.73;;
66139;SDS011;52945;51.908;8.364;2023-04-25T15:31:52;1.38;;;0.88;;
66139;SDS011;52945;51.908;8.364;2023-04-25T15:34:53;2.35;;;0.80;;
66139;SDS011;52945;51.908;8.364;2023-04-25T15:37:53;2.15;;;0.70;;
66139;SDS011;52945;51.908;8.364;2023-04-25T15:40:54;4.07;;;0.88;;
66139;SDS011;52945;51.908;8.364;2023-04-25T15:43:55;3.67;;;1.35;;
66139;SDS011;52945;51.908;8.364;2023-04-25T15:46:55;2.90;;;1.05;;
66139;SDS011;52945;51.908;8.364;2023-04-25T15:49:56;1.63;;;0.77;;
66139;SDS011;52945;51.908;8.364;2023-04-25T15:52:56;2.47;;;0.73;;
66139;SDS011;52945;51.908;8.364;2023-04-25T15:55:57;1.60;;;0.77;;
66139;SDS011;52945;51.908;8.364;2023-04-25T15:58:58;5.07;;;1.65;;
66139;SDS011;52945;51.908;8.364;2023-04-25T16:01:58;3.78;;;0.93;;
66139;SDS011;52945;51.908;8.364;2023-04-25T16:04:59;4.15;;;0.95;;
66139;SDS011;52945;51.908;8.364;2023-04-25T16:07:59;4.72;;;1.13;;
66139;SDS011;52945;51.908;8.364;2023-04-25T16:11:01;3.33;;;1.02;;
66139;SDS011;52945;51.908;8.364;2023-04-25T16:16:31;2.88;;;1.02;;
66139;SDS011;52945;51.908;8.364;2023-04-25T16:19:32;2.22;;;1.10;;
66139;SDS011;52945;51.908;8.364;2023-04-25T16:22:33;3.17;;;1.52;;
66139;SDS011;52945;51.908;8.364;2023-04-25T16:25:33;5.60;;;1.30;;
66139;SDS011;52945;51.908;8.364;2023-04-25T16:28:34;1.83;;;1.10;;
66139;SDS011;52945;51.908;8.364;2023-04-25T16:31:35;3.30;;;0.93;;
66139;SDS011;52945;51.908;8.364;2023-04-25T16:34:35;2.78;;;1.02;;
66139;SDS011;52945;51.908;8.364;2023-04-25T16:37:36;4.40;;;1.10;;
66139;SDS011;52945;51.908;8.364;2023-04-25T16:40:37;2.72;;;1.13;;
66139;SDS011;52945;51.908;8.364;2023-04-25T16:43:37;5.38;;;1.25;;
66139;SDS011;52945;51.908;8.364;2023-04-25T16:46:41;1.40;;;1.30;;
66139;SDS011;52945;51.908;8.364;2023-04-25T16:49:42;5.28;;;1.20;;
66139;SDS011;52945;51.908;8.364;2023-04-25T16:52:42;3.97;;;1.02;;
66139;SDS011;52945;51.908;8.364;2023-04-25T16:55:43;3.97;;;1.38;;
66139;SDS011;52945;51.908;8.364;2023-04-25T16:58:44;1.40;;;0.98;;
66139;SDS011;52945;51.908;8.364;2023-04-25T17:01:45;4.00;;;1.10;;
66139;SDS011;52945;51.908;8.364;2023-04-25T17:04:45;2.42;;;0.80;;
66139;SDS011;52945;51.908;8.364;2023-04-25T17:07:46;1.98;;;0.95;;
66139;SDS011;52945;51.908;8.364;2023-04-25T17:10:47;1.02;;;0.90;;
66139;SDS011;52945;51.908;8.364;2023-04-25T17:13:48;1.00;;;0.85;;
66139;SDS011;52945;51.908;8.364;2023-04-25T17:16:50;2.20;;;0.85;;
66139;SDS011;52945;51.908;8.364;2023-04-25T17:19:50;1.42;;;0.85;;
66139;SDS011;52945;51.908;8.364;2023-04-25T17:22:52;1.67;;;0.65;;
66139;SDS011;52945;51.908;8.364;2023-04-25T17:25:53;2.17;;;0.90;;
66139;SDS011;52945;51.908;8.364;2023-04-25T17:28:53;1.77;;;0.75;;
66139;SDS011;52945;51.908;8.364;2023-04-25T17:31:54;2.40;;;0.90;;
66139;SDS011;52945;51.908;8.364;2023-04-25T17:34:56;4.30;;;0.90;;
66139;SDS011;52945;51.908;8.364;2023-04-25T17:37:57;1.85;;;0.77;;
66139;SDS011;52945;51.908;8.364;2023-04-25T17:40:57;1.42;;;1.10;;
66139;SDS011;52945;51.908;8.364;2023-04-25T17:43:58;1.85;;;0.73;;
66139;SDS011;52945;51.908;8.364;2023-04-25T17:46:59;3.42;;;0.90;;
66139;SDS011;52945;51.908;8.364;2023-04-25T17:50:02;2.17;;;0.82;;
66139;SDS011;52945;51.908;8.364;2023-04-25T17:53:03;1.48;;;1.02;;
66139;SDS011;52945;51.908;8.364;2023-04-25T17:56:04;1.75;;;0.70;;
66139;SDS011;52945;51.908;8.364;2023-04-25T17:59:06;3.42;;;1.30;;
66139;SDS011;52945;51.908;8.364;2023-04-25T18:02:07;2.78;;;1.10;;
66139;SDS011;52945;51.908;8.364;2023-04-25T18:05:08;1.20;;;0.73;;
66139;SDS011;52945;51.908;8.364;2023-04-25T18:08:08;3.55;;;0.90;;
66139;SDS011;52945;51.908;8.364;2023-04-25T18:11:09;1.92;;;0.82;;
66139;SDS011;52945;51.908;8.364;2023-04-25T18:14:11;1.67;;;0.82;;
66139;SDS011;52945;51.908;8.364;2023-04-25T18:17:16;3.47;;;1.25;;
66139;SDS011;52945;51.908;8.364;2023-04-25T18:20:16;1.67;;;0.98;;
66139;SDS011;52945;51.908;8.364;2023-04-25T18:26:18;0.93;;;0.80;;
66139;SDS011;52945;51.908;8.364;2023-04-25T18:29:20;1.88;;;1.02;;
66139;SDS011;52945;51.908;8.364;2023-04-25T18:32:50;1.23;;;0.60;;
66139;SDS011;52945;51.908;8.364;2023-04-25T18:35:51;1.13;;;0.98;;
66139;SDS011;52945;51.908;8.364;2023-04-25T18:38:52;3.75;;;0.68;;
66139;SDS011;52945;51.908;8.364;2023-04-25T18:41:54;2.10;;;1.08;;
66139;SDS011;52945;51.908;8.364;2023-04-25T18:44:56;3.55;;;1.15;;
66139;SDS011;52945;51.908;8.364;2023-04-25T18:47:57;1.90;;;0.85;;
66139;SDS011;52945;51.908;8.364;2023-04-25T18:51:00;1.30;;;0.90;;
66139;SDS011;52945;51.908;8.364;2023-04-25T18:54:01;1.65;;;0.68;;
66139;SDS011;52945;51.908;8.364;2023-04-25T18:57:03;1.55;;;0.88;;
66139;SDS011;52945;51.908;8.364;2023-04-25T19:00:05;3.83;;;0.98;;